sensor_id;sensor_type;location;lat;lon;timestamp;pressure;altitude;pressure_sealevel;temperature;humidity
56632;BME280;42503;39.928;-75.152;2022-07-18T00:01:03;101447.13;;;31.46;46.00
56632;BME280;42503;39.928;-75.152;2022-07-18T00:03:05;101449.13;;;31.46;46.07
56632;BME280;42503;39.928;-75.152;2022-07-18T00:05:07;101456.44;;;31.47;46.15
56632;BME280;42503;39.928;-75.152;2022-07-18T00:07:08;101442.66;;;31.45;46.23
56632;BME280;42503;39.928;-75.152;2022-07-18T00:09:11;101450.78;;;31.47;46.40
56632;BME280;42503;39.928;-75.152;2022-07-18T00:11:16;101438.66;;;31.46;45.99
56632;BME280;42503;39.928;-75.152;2022-07-18T00:13:20;101423.22;;;31.44;46.18
56632;BME280;42503;39.928;-75.152;2022-07-18T00:15:25;101433.53;;;31.40;46.32
56632;BME280;42503;39.928;-75.152;2022-07-18T00:17:29;101440.66;;;31.46;46.14
56632;BME280;42503;39.928;-75.152;2022-07-18T00:19:31;101446.31;;;31.46;46.15
56632;BME280;42503;39.928;-75.152;2022-07-18T00:21:34;101449.13;;;31.46;46.14
56632;BME280;42503;39.928;-75.152;2022-07-18T00:23:38;101449.13;;;31.46;46.29
56632;BME280;42503;39.928;-75.152;2022-07-18T00:25:42;101425.38;;;31.38;46.39
56632;BME280;42503;39.928;-75.152;2022-07-18T00:27:44;101449.97;;;31.46;46.13
56632;BME280;42503;39.928;-75.152;2022-07-18T00:29:52;101444.03;;;31.39;46.34
56632;BME280;42503;39.928;-75.152;2022-07-18T00:31:54;101425.38;;;31.38;46.44
56632;BME280;42503;39.928;-75.152;2022-07-18T00:33:55;101422.91;;;31.36;46.32
56632;BME280;42503;39.928;-75.152;2022-07-18T00:35:56;101436.16;;;31.45;46.41
56632;BME280;42503;39.928;-75.152;2022-07-18T00:37:57;101441.84;;;31.45;46.18
56632;BME280;42503;39.928;-75.152;2022-07-18T00:39:59;101431.19;;;31.42;46.35
56632;BME280;42503;39.928;-75.152;2022-07-18T00:42:00;101436.16;;;31.45;46.22
56632;BME280;42503;39.928;-75.152;2022-07-18T00:44:02;101428.88;;;31.44;46.38
56632;BME280;42503;39.928;-75.152;2022-07-18T00:46:03;101434.53;;;31.44;46.20
56632;BME280;42503;39.928;-75.152;2022-07-18T00:48:08;101428.50;;;31.45;46.17
56632;BME280;42503;39.928;-75.152;2022-07-18T00:50:09;101430.88;;;31.43;46.38
56632;BME280;42503;39.928;-75.152;2022-07-18T00:52:10;101436.31;;;31.48;46.29
56632;BME280;42503;39.928;-75.152;2022-07-18T00:54:12;101432.84;;;31.43;46.10
56632;BME280;42503;39.928;-75.152;2022-07-18T00:56:16;101434.66;;;31.47;46.42
56632;BME280;42503;39.928;-75.152;2022-07-18T00:58:18;101438.66;;;31.46;46.27
56632;BME280;42503;39.928;-75.152;2022-07-18T01:00:19;101432.16;;;31.46;46.17
56632;BME280;42503;39.928;-75.152;2022-07-18T01:02:39;101437.81;;;31.46;46.33
56632;BME280;42503;39.928;-75.152;2022-07-18T01:04:43;101437.81;;;31.46;46.54
56632;BME280;42503;39.928;-75.152;2022-07-18T01:06:49;101429.34;;;31.46;46.41
56632;BME280;42503;39.928;-75.152;2022-07-18T01:08:54;101432.16;;;31.46;46.23
56632;BME280;42503;39.928;-75.152;2022-07-18T01:10:55;101424.84;;;31.45;46.38
56632;BME280;42503;39.928;-75.152;2022-07-18T01:12:56;101439.00;;;31.45;46.43
56632;BME280;42503;39.928;-75.152;2022-07-18T01:15:01;101432.84;;;31.43;46.37
56632;BME280;42503;39.928;-75.152;2022-07-18T01:17:02;101422.22;;;31.40;46.29
56632;BME280;42503;39.928;-75.152;2022-07-18T01:19:09;101441.97;;;31.48;46.35
56632;BME280;42503;39.928;-75.152;2022-07-18T01:21:10;101440.66;;;31.46;46.19
56632;BME280;42503;39.928;-75.152;2022-07-18T01:23:12;101443.47;;;31.46;46.47
56632;BME280;42503;39.928;-75.152;2022-07-18T01:25:13;101434.72;;;31.38;46.50
56632;BME280;42503;39.928;-75.152;2022-07-18T01:27:20;101447.50;;;31.45;46.37
56632;BME280;42503;39.928;-75.152;2022-07-18T01:29:21;101457.97;;;31.44;46.27
56632;BME280;42503;39.928;-75.152;2022-07-18T01:31:22;101457.16;;;31.44;46.56
56632;BME280;42503;39.928;-75.152;2022-07-18T01:33:24;101463.63;;;31.44;46.40
56632;BME280;42503;39.928;-75.152;2022-07-18T01:35:27;101465.13;;;31.42;46.52
56632;BME280;42503;39.928;-75.152;2022-07-18T01:37:34;101471.28;;;31.44;46.61
56632;BME280;42503;39.928;-75.152;2022-07-18T01:39:36;101466.78;;;31.43;46.56
56632;BME280;42503;39.928;-75.152;2022-07-18T01:41:38;101464.66;;;31.40;46.34
56632;BME280;42503;39.928;-75.152;2022-07-18T01:43:41;101459.66;;;31.36;46.41
56632;BME280;42503;39.928;-75.152;2022-07-18T01:45:42;101470.78;;;31.42;46.31
56632;BME280;42503;39.928;-75.152;2022-07-18T01:47:44;101472.44;;;31.43;46.38
56632;BME280;42503;39.928;-75.152;2022-07-18T01:49:45;101456.38;;;31.34;46.61
56632;BME280;42503;39.928;-75.152;2022-07-18T01:51:51;101469.59;;;31.43;46.42
56632;BME280;42503;39.928;-75.152;2022-07-18T01:53:55;101483.75;;;31.43;46.76
56632;BME280;42503;39.928;-75.152;2022-07-18T01:55:59;101490.25;;;31.43;46.67
56632;BME280;42503;39.928;-75.152;2022-07-18T01:58:00;101483.75;;;31.43;46.46
56632;BME280;42503;39.928;-75.152;2022-07-18T02:00:06;101488.44;;;31.38;46.42
56632;BME280;42503;39.928;-75.152;2022-07-18T02:02:08;101492.22;;;31.43;46.77
56632;BME280;42503;39.928;-75.152;2022-07-18T02:04:09;101493.91;;;31.44;46.62
56632;BME280;42503;39.928;-75.152;2022-07-18T02:06:11;101495.06;;;31.43;46.78
56632;BME280;42503;39.928;-75.152;2022-07-18T02:08:12;101503.53;;;31.43;46.74
56632;BME280;42503;39.928;-75.152;2022-07-18T02:10:16;101507.22;;;31.43;46.69
56632;BME280;42503;39.928;-75.152;2022-07-18T02:12:21;101503.06;;;31.41;46.57
56632;BME280;42503;39.928;-75.152;2022-07-18T02:14:24;101501.69;;;31.47;46.47
56632;BME280;42503;39.928;-75.152;2022-07-18T02:16:26;101496.03;;;31.47;46.49
56632;BME280;42503;39.928;-75.152;2022-07-18T02:18:27;101500.03;;;31.46;46.75
56632;BME280;42503;39.928;-75.152;2022-07-18T02:20:32;101499.56;;;31.44;46.56
56632;BME280;42503;39.928;-75.152;2022-07-18T02:22:34;101501.56;;;31.43;46.48
56632;BME280;42503;39.928;-75.152;2022-07-18T02:24:36;101499.88;;;31.42;46.74
56632;BME280;42503;39.928;-75.152;2022-07-18T02:26:37;101503.06;;;31.41;46.56
56632;BME280;42503;39.928;-75.152;2022-07-18T02:28:38;101502.72;;;31.42;46.78
56632;BME280;42503;39.928;-75.152;2022-07-18T02:30:42;101510.38;;;31.42;46.62
56632;BME280;42503;39.928;-75.152;2022-07-18T02:32:44;101506.38;;;31.43;46.81
56632;BME280;42503;39.928;-75.152;2022-07-18T02:34:48;101507.56;;;31.42;46.89
56632;BME280;42503;39.928;-75.152;2022-07-18T02:36:52;101512.03;;;31.43;46.74
56632;BME280;42503;39.928;-75.152;2022-07-18T02:38:54;101512.03;;;31.43;46.79
56632;BME280;42503;39.928;-75.152;2022-07-18T02:40:57;101504.25;;;31.40;46.78
56632;BME280;42503;39.928;-75.152;2022-07-18T02:42:59;101506.38;;;31.43;46.83
56632;BME280;42503;39.928;-75.152;2022-07-18T02:45:00;101503.53;;;31.43;46.56
56632;BME280;42503;39.928;-75.152;2022-07-18T02:47:02;101499.06;;;31.42;46.62
56632;BME280;42503;39.928;-75.152;2022-07-18T02:49:04;101490.59;;;31.42;46.75
56632;BME280;42503;39.928;-75.152;2022-07-18T02:51:05;101492.59;;;31.41;46.63
56632;BME280;42503;39.928;-75.152;2022-07-18T02:53:06;101493.41;;;31.42;46.79
56632;BME280;42503;39.928;-75.152;2022-07-18T02:55:09;101475.34;;;31.34;46.66
56632;BME280;42503;39.928;-75.152;2022-07-18T02:57:11;101499.88;;;31.42;46.77
56632;BME280;42503;39.928;-75.152;2022-07-18T02:59:12;101499.88;;;31.42;46.57
56632;BME280;42503;39.928;-75.152;2022-07-18T03:01:13;101501.91;;;31.42;46.64
56632;BME280;42503;39.928;-75.152;2022-07-18T03:03:15;101503.91;;;31.41;46.66
56632;BME280;42503;39.928;-75.152;2022-07-18T03:05:16;101497.41;;;31.41;46.90
56632;BME280;42503;39.928;-75.152;2022-07-18T03:07:21;101504.72;;;31.42;47.00
56632;BME280;42503;39.928;-75.152;2022-07-18T03:09:22;101493.75;;;31.40;46.82
56632;BME280;42503;39.928;-75.152;2022-07-18T03:11:27;101503.06;;;31.41;46.66
56632;BME280;42503;39.928;-75.152;2022-07-18T03:13:29;101494.59;;;31.41;46.72
56632;BME280;42503;39.928;-75.152;2022-07-18T03:15:30;101486.09;;;31.41;46.83
56632;BME280;42503;39.928;-75.152;2022-07-18T03:17:31;101493.25;;;31.38;46.77
56632;BME280;42503;39.928;-75.152;2022-07-18T03:19:41;101507.91;;;31.40;46.85
56632;BME280;42503;39.928;-75.152;2022-07-18T03:21:43;101508.72;;;31.41;46.96
56632;BME280;42503;39.928;-75.152;2022-07-18T03:23:47;101505.91;;;31.41;46.69
56632;BME280;42503;39.928;-75.152;2022-07-18T03:25:48;101505.91;;;31.41;46.78
56632;BME280;42503;39.928;-75.152;2022-07-18T03:27:49;101503.06;;;31.41;46.57
56632;BME280;42503;39.928;-75.152;2022-07-18T03:29:51;101508.72;;;31.41;46.83
56632;BME280;42503;39.928;-75.152;2022-07-18T03:31:55;101501.25;;;31.36;46.77
56632;BME280;42503;39.928;-75.152;2022-07-18T03:33:59;101508.72;;;31.41;47.00
56632;BME280;42503;39.928;-75.152;2022-07-18T03:36:06;101503.63;;;31.34;46.66
56632;BME280;42503;39.928;-75.152;2022-07-18T03:38:08;101515.22;;;31.41;46.83
56632;BME280;42503;39.928;-75.152;2022-07-18T03:40:09;101494.28;;;31.33;46.89
56632;BME280;42503;39.928;-75.152;2022-07-18T03:42:11;101503.91;;;31.41;46.94
56632;BME280;42503;39.928;-75.152;2022-07-18T03:44:15;101502.25;;;31.40;46.93
56632;BME280;42503;39.928;-75.152;2022-07-18T03:46:16;101500.25;;;31.41;46.90
56632;BME280;42503;39.928;-75.152;2022-07-18T03:48:18;101498.59;;;31.40;46.90
56632;BME280;42503;39.928;-75.152;2022-07-18T03:50:22;101501.41;;;31.40;46.81
56632;BME280;42503;39.928;-75.152;2022-07-18T03:52:23;101495.75;;;31.40;46.99
56632;BME280;42503;39.928;-75.152;2022-07-18T03:54:24;101495.75;;;31.40;46.92
56632;BME280;42503;39.928;-75.152;2022-07-18T03:56:26;101487.94;;;31.36;46.73
56632;BME280;42503;39.928;-75.152;2022-07-18T03:58:27;101494.09;;;31.38;46.99
56632;BME280;42503;39.928;-75.152;2022-07-18T04:00:29;101491.28;;;31.38;46.77
56632;BME280;42503;39.928;-75.152;2022-07-18T04:02:30;101495.75;;;31.40;46.90
56632;BME280;42503;39.928;-75.152;2022-07-18T04:04:32;101494.09;;;31.38;46.86
56632;BME280;42503;39.928;-75.152;2022-07-18T04:06:33;101496.94;;;31.38;46.71
56632;BME280;42503;39.928;-75.152;2022-07-18T04:08:34;101505.41;;;31.38;46.96
56632;BME280;42503;39.928;-75.152;2022-07-18T04:10:36;101494.09;;;31.38;46.87
56632;BME280;42503;39.928;-75.152;2022-07-18T04:12:47;101484.75;;;31.38;46.88
56632;BME280;42503;39.928;-75.152;2022-07-18T04:14:48;101472.44;;;31.43;46.95
56632;BME280;42503;39.928;-75.152;2022-07-18T04:16:49;101486.56;;;31.43;46.63
56632;BME280;42503;39.928;-75.152;2022-07-18T04:18:51;101466.00;;;31.33;46.91
56632;BME280;42503;39.928;-75.152;2022-07-18T04:20:53;101482.09;;;31.42;46.65
56632;BME280;42503;39.928;-75.152;2022-07-18T04:22:56;101471.66;;;31.33;46.93
56632;BME280;42503;39.928;-75.152;2022-07-18T04:25:01;101477.63;;;31.41;46.67
56632;BME280;42503;39.928;-75.152;2022-07-18T04:27:02;101482.09;;;31.42;46.89
56632;BME280;42503;39.928;-75.152;2022-07-18T04:29:09;101474.78;;;31.41;46.85
56632;BME280;42503;39.928;-75.152;2022-07-18T04:31:13;101473.13;;;31.40;46.98
56632;BME280;42503;39.928;-75.152;2022-07-18T04:33:17;101478.78;;;31.40;46.63
56632;BME280;42503;39.928;-75.152;2022-07-18T04:35:23;101473.13;;;31.40;46.67
56632;BME280;42503;39.928;-75.152;2022-07-18T04:37:24;101465.69;;;31.35;46.81
56632;BME280;42503;39.928;-75.152;2022-07-18T04:39:26;101467.31;;;31.36;47.01
56632;BME280;42503;39.928;-75.152;2022-07-18T04:41:27;101471.47;;;31.38;46.75
56632;BME280;42503;39.928;-75.152;2022-07-18T04:43:28;101469.81;;;31.37;47.05
56632;BME280;42503;39.928;-75.152;2022-07-18T04:45:34;101472.16;;;31.35;46.96
56632;BME280;42503;39.928;-75.152;2022-07-18T04:47:39;101468.34;;;31.31;46.69
56632;BME280;42503;39.928;-75.152;2022-07-18T04:49:40;101469.81;;;31.37;46.94
56632;BME280;42503;39.928;-75.152;2022-07-18T04:51:41;101474.31;;;31.38;46.93
56632;BME280;42503;39.928;-75.152;2022-07-18T04:53:43;101464.97;;;31.38;46.86
56632;BME280;42503;39.928;-75.152;2022-07-18T04:55:44;101459.31;;;31.38;46.73
56632;BME280;42503;39.928;-75.152;2022-07-18T04:57:45;101463.31;;;31.37;46.88
56632;BME280;42503;39.928;-75.152;2022-07-18T04:59:47;101450.72;;;31.34;47.07
56632;BME280;42503;39.928;-75.152;2022-07-18T05:01:48;101452.84;;;31.37;46.79
56632;BME280;42503;39.928;-75.152;2022-07-18T05:03:52;101454.53;;;31.38;47.01
56632;BME280;42503;39.928;-75.152;2022-07-18T05:05:54;101454.53;;;31.38;46.93
56632;BME280;42503;39.928;-75.152;2022-07-18T05:07:58;101444.56;;;31.32;46.82
56632;BME280;42503;39.928;-75.152;2022-07-18T05:09:59;101456.84;;;31.36;46.93
56632;BME280;42503;39.928;-75.152;2022-07-18T05:12:01;101447.19;;;31.37;46.96
56632;BME280;42503;39.928;-75.152;2022-07-18T05:14:02;101450.00;;;31.37;46.95
56632;BME280;42503;39.928;-75.152;2022-07-18T05:16:06;101441.53;;;31.37;46.78
56632;BME280;42503;39.928;-75.152;2022-07-18T05:18:08;101441.53;;;31.37;46.77
56632;BME280;42503;39.928;-75.152;2022-07-18T05:20:14;101440.69;;;31.37;46.72
56632;BME280;42503;39.928;-75.152;2022-07-18T05:22:15;101441.53;;;31.37;46.89
56632;BME280;42503;39.928;-75.152;2022-07-18T05:24:17;101434.22;;;31.36;46.99
56632;BME280;42503;39.928;-75.152;2022-07-18T05:26:18;101440.69;;;31.37;46.96
56632;BME280;42503;39.928;-75.152;2022-07-18T05:28:23;101439.88;;;31.36;46.87
56632;BME280;42503;39.928;-75.152;2022-07-18T05:30:24;101435.75;;;31.34;46.89
56632;BME280;42503;39.928;-75.152;2022-07-18T05:32:26;101433.38;;;31.36;46.99
56632;BME280;42503;39.928;-75.152;2022-07-18T05:34:30;101427.72;;;31.36;46.97
56632;BME280;42503;39.928;-75.152;2022-07-18T05:36:31;101423.56;;;31.33;46.76
56632;BME280;42503;39.928;-75.152;2022-07-18T05:38:36;101434.22;;;31.36;46.80
56632;BME280;42503;39.928;-75.152;2022-07-18T05:40:42;101421.09;;;31.32;47.03
56632;BME280;42503;39.928;-75.152;2022-07-18T05:42:47;101432.56;;;31.35;46.75
56632;BME280;42503;39.928;-75.152;2022-07-18T05:44:50;101418.28;;;31.32;47.03
56632;BME280;42503;39.928;-75.152;2022-07-18T05:46:51;101426.91;;;31.35;46.97
56632;BME280;42503;39.928;-75.152;2022-07-18T05:48:56;101410.16;;;31.30;46.91
56632;BME280;42503;39.928;-75.152;2022-07-18T05:50:57;101424.09;;;31.35;47.01
56632;BME280;42503;39.928;-75.152;2022-07-18T05:52:58;101419.28;;;31.27;47.06
56632;BME280;42503;39.928;-75.152;2022-07-18T05:55:00;101428.09;;;31.34;46.88
56632;BME280;42503;39.928;-75.152;2022-07-18T05:57:05;101423.56;;;31.33;46.80
56632;BME280;42503;39.928;-75.152;2022-07-18T05:59:06;101417.91;;;31.33;46.85
56632;BME280;42503;39.928;-75.152;2022-07-18T06:01:07;101402.34;;;31.27;47.02
56632;BME280;42503;39.928;-75.152;2022-07-18T06:03:09;101408.28;;;31.34;46.79
56632;BME280;42503;39.928;-75.152;2022-07-18T06:05:10;101406.63;;;31.33;46.73
56632;BME280;42503;39.928;-75.152;2022-07-18T06:07:11;101413.44;;;31.32;46.79
56632;BME280;42503;39.928;-75.152;2022-07-18T06:09:13;101407.78;;;31.32;47.07
56632;BME280;42503;39.928;-75.152;2022-07-18T06:11:14;101412.25;;;31.33;47.02
56632;BME280;42503;39.928;-75.152;2022-07-18T06:13:15;101363.50;;;31.07;47.14
56632;BME280;42503;39.928;-75.152;2022-07-18T06:15:17;101394.16;;;31.26;46.95
56632;BME280;42503;39.928;-75.152;2022-07-18T06:17:18;101399.31;;;31.32;46.96
56632;BME280;42503;39.928;-75.152;2022-07-18T06:19:22;101402.97;;;31.33;47.03
56632;BME280;42503;39.928;-75.152;2022-07-18T06:21:24;101399.31;;;31.32;46.89
56632;BME280;42503;39.928;-75.152;2022-07-18T06:23:26;101393.66;;;31.32;46.84
56632;BME280;42503;39.928;-75.152;2022-07-18T06:25:27;101393.66;;;31.32;47.17
56632;BME280;42503;39.928;-75.152;2022-07-18T06:27:31;101383.50;;;31.31;47.16
56632;BME280;42503;39.928;-75.152;2022-07-18T06:29:32;101381.88;;;31.30;46.90
56632;BME280;42503;39.928;-75.152;2022-07-18T06:31:34;101379.88;;;31.31;46.91
56632;BME280;42503;39.928;-75.152;2022-07-18T06:33:38;101382.34;;;31.32;46.95
56632;BME280;42503;39.928;-75.152;2022-07-18T06:35:41;101379.88;;;31.31;47.10
56632;BME280;42503;39.928;-75.152;2022-07-18T06:37:42;101375.03;;;31.31;46.83
56632;BME280;42503;39.928;-75.152;2022-07-18T06:39:45;101381.50;;;31.32;47.13
56632;BME280;42503;39.928;-75.152;2022-07-18T06:41:46;101385.53;;;31.31;47.00
56632;BME280;42503;39.928;-75.152;2022-07-18T06:43:50;101375.03;;;31.31;47.11
56632;BME280;42503;39.928;-75.152;2022-07-18T06:45:54;101379.88;;;31.31;47.11
56632;BME280;42503;39.928;-75.152;2022-07-18T06:47:58;101364.53;;;31.32;47.04
56632;BME280;42503;39.928;-75.152;2022-07-18T06:49:59;101376.22;;;31.30;46.75
56632;BME280;42503;39.928;-75.152;2022-07-18T06:52:01;101374.22;;;31.31;47.09
56632;BME280;42503;39.928;-75.152;2022-07-18T06:54:02;101367.72;;;31.30;46.79
56632;BME280;42503;39.928;-75.152;2022-07-18T06:56:04;101374.53;;;31.29;47.16
56632;BME280;42503;39.928;-75.152;2022-07-18T06:58:06;101371.69;;;31.29;46.79
56632;BME280;42503;39.928;-75.152;2022-07-18T07:00:09;101377.34;;;31.29;46.93
56632;BME280;42503;39.928;-75.152;2022-07-18T07:02:12;101377.34;;;31.29;46.91
56632;BME280;42503;39.928;-75.152;2022-07-18T07:04:14;101371.69;;;31.29;46.84
56632;BME280;42503;39.928;-75.152;2022-07-18T07:06:15;101354.44;;;31.22;46.91
56632;BME280;42503;39.928;-75.152;2022-07-18T07:08:17;101362.41;;;31.29;46.82
56632;BME280;42503;39.928;-75.152;2022-07-18T07:10:19;101368.88;;;31.29;46.92
56632;BME280;42503;39.928;-75.152;2022-07-18T07:12:23;101364.41;;;31.28;47.01
56632;BME280;42503;39.928;-75.152;2022-07-18T07:14:24;101357.72;;;31.24;46.79
56632;BME280;42503;39.928;-75.152;2022-07-18T07:16:26;101376.53;;;31.29;47.10
56632;BME280;42503;39.928;-75.152;2022-07-18T07:18:27;101377.34;;;31.29;47.06
56632;BME280;42503;39.928;-75.152;2022-07-18T07:20:28;101370.06;;;31.28;47.21
56632;BME280;42503;39.928;-75.152;2022-07-18T07:22:30;101364.41;;;31.28;47.12
56632;BME280;42503;39.928;-75.152;2022-07-18T07:24:31;101368.06;;;31.29;47.10
56632;BME280;42503;39.928;-75.152;2022-07-18T07:26:36;101355.72;;;31.25;47.17
56632;BME280;42503;39.928;-75.152;2022-07-18T07:28:40;101366.41;;;31.28;46.94
56632;BME280;42503;39.928;-75.152;2022-07-18T07:30:41;101367.22;;;31.28;46.85
56632;BME280;42503;39.928;-75.152;2022-07-18T07:32:45;101368.41;;;31.27;46.97
56632;BME280;42503;39.928;-75.152;2022-07-18T07:34:49;101363.56;;;31.28;47.06
56632;BME280;42503;39.928;-75.152;2022-07-18T07:36:50;101358.25;;;31.26;46.99
56632;BME280;42503;39.928;-75.152;2022-07-18T07:38:52;101354.25;;;31.27;47.17
56632;BME280;42503;39.928;-75.152;2022-07-18T07:40:54;101354.59;;;31.26;46.92
56632;BME280;42503;39.928;-75.152;2022-07-18T07:43:24;101363.38;;;31.24;46.99
56632;BME280;42503;39.928;-75.152;2022-07-18T07:45:25;101359.06;;;31.27;46.87
56632;BME280;42503;39.928;-75.152;2022-07-18T07:47:27;101349.75;;;31.26;46.92
56632;BME280;42503;39.928;-75.152;2022-07-18T07:49:32;101344.94;;;31.27;46.95
56632;BME280;42503;39.928;-75.152;2022-07-18T07:51:35;101355.41;;;31.26;46.98
56632;BME280;42503;39.928;-75.152;2022-07-18T07:53:37;101346.09;;;31.26;47.06
56632;BME280;42503;39.928;-75.152;2022-07-18T07:55:41;101340.28;;;31.22;47.16
56632;BME280;42503;39.928;-75.152;2022-07-18T07:57:42;101342.44;;;31.25;47.01
56632;BME280;42503;39.928;-75.152;2022-07-18T07:59:52;101331.16;;;31.25;47.01
56632;BME280;42503;39.928;-75.152;2022-07-18T08:01:54;101324.31;;;31.26;47.25
56632;BME280;42503;39.928;-75.152;2022-07-18T08:03:55;101329.97;;;31.26;46.94
56632;BME280;42503;39.928;-75.152;2022-07-18T08:05:57;101327.13;;;31.26;47.13
56632;BME280;42503;39.928;-75.152;2022-07-18T08:07:59;101308.53;;;31.25;46.96
56632;BME280;42503;39.928;-75.152;2022-07-18T08:10:04;101305.19;;;31.23;47.00
56632;BME280;42503;39.928;-75.152;2022-07-18T08:12:05;101314.19;;;31.25;46.85
56632;BME280;42503;39.928;-75.152;2022-07-18T08:14:07;101318.16;;;31.24;47.07
56632;BME280;42503;39.928;-75.152;2022-07-18T08:16:08;101318.50;;;31.23;46.98
56632;BME280;42503;39.928;-75.152;2022-07-18T08:18:09;101312.50;;;31.24;47.23
56632;BME280;42503;39.928;-75.152;2022-07-18T08:20:15;101314.34;;;31.20;47.15
56632;BME280;42503;39.928;-75.152;2022-07-18T08:22:19;101320.97;;;31.24;47.14
56632;BME280;42503;39.928;-75.152;2022-07-18T08:24:20;101318.16;;;31.24;46.99
56632;BME280;42503;39.928;-75.152;2022-07-18T08:26:24;101327.34;;;31.21;47.06
56632;BME280;42503;39.928;-75.152;2022-07-18T08:28:25;101329.47;;;31.24;47.03
56632;BME280;42503;39.928;-75.152;2022-07-18T08:30:29;101329.47;;;31.24;46.88
56632;BME280;42503;39.928;-75.152;2022-07-18T08:32:30;101336.28;;;31.23;47.25
56632;BME280;42503;39.928;-75.152;2022-07-18T08:34:32;101328.63;;;31.24;47.14
56632;BME280;42503;39.928;-75.152;2022-07-18T08:36:33;101321.34;;;31.23;47.25
56632;BME280;42503;39.928;-75.152;2022-07-18T08:38:37;101312.03;;;31.22;47.14
56632;BME280;42503;39.928;-75.152;2022-07-18T08:40:38;101315.69;;;31.23;47.05
56632;BME280;42503;39.928;-75.152;2022-07-18T08:42:43;101315.69;;;31.23;47.00
56632;BME280;42503;39.928;-75.152;2022-07-18T08:44:45;101319.34;;;31.23;47.00
56632;BME280;42503;39.928;-75.152;2022-07-18T08:46:51;101318.34;;;31.19;47.08
56632;BME280;42503;39.928;-75.152;2022-07-18T08:48:57;101318.50;;;31.23;47.05
56632;BME280;42503;39.928;-75.152;2022-07-18T08:51:05;101304.56;;;31.18;47.33
56632;BME280;42503;39.928;-75.152;2022-07-18T08:53:07;101320.50;;;31.22;47.05
56632;BME280;42503;39.928;-75.152;2022-07-18T08:55:09;101326.16;;;31.22;47.23
56632;BME280;42503;39.928;-75.152;2022-07-18T08:57:11;101324.50;;;31.21;47.17
56632;BME280;42503;39.928;-75.152;2022-07-18T08:59:12;101320.50;;;31.22;46.95
56632;BME280;42503;39.928;-75.152;2022-07-18T09:01:13;101321.69;;;31.21;47.22
56632;BME280;42503;39.928;-75.152;2022-07-18T09:03:15;101321.69;;;31.21;47.16
56632;BME280;42503;39.928;-75.152;2022-07-18T09:05:20;101314.03;;;31.22;47.17
56632;BME280;42503;39.928;-75.152;2022-07-18T09:07:28;101323.34;;;31.22;47.05
56632;BME280;42503;39.928;-75.152;2022-07-18T09:09:33;101319.69;;;31.22;47.21
56632;BME280;42503;39.928;-75.152;2022-07-18T09:11:37;101317.69;;;31.22;46.97
56632;BME280;42503;39.928;-75.152;2022-07-18T09:13:40;101320.50;;;31.22;47.28
56632;BME280;42503;39.928;-75.152;2022-07-18T09:18:04;101320.50;;;31.22;47.38
56632;BME280;42503;39.928;-75.152;2022-07-18T09:20:13;101318.03;;;31.21;47.21
56632;BME280;42503;39.928;-75.152;2022-07-18T09:22:22;101306.56;;;31.17;47.01
56632;BME280;42503;39.928;-75.152;2022-07-18T09:24:24;101318.84;;;31.21;47.18
56632;BME280;42503;39.928;-75.152;2022-07-18T09:26:43;101313.88;;;31.18;47.21
56632;BME280;42503;39.928;-75.152;2022-07-18T09:28:49;101324.50;;;31.21;47.18
56632;BME280;42503;39.928;-75.152;2022-07-18T09:30:58;101309.59;;;31.12;47.22
56632;BME280;42503;39.928;-75.152;2022-07-18T09:35:11;101328.50;;;31.20;47.31
56632;BME280;42503;39.928;-75.152;2022-07-18T09:37:13;101324.88;;;31.11;47.18
56632;BME280;42503;39.928;-75.152;2022-07-18T09:39:19;101323.19;;;31.19;47.24
56632;BME280;42503;39.928;-75.152;2022-07-18T09:41:26;101317.88;;;31.17;47.17
56632;BME280;42503;39.928;-75.152;2022-07-18T09:43:28;101320.22;;;31.15;47.35
56632;BME280;42503;39.928;-75.152;2022-07-18T09:45:52;101331.66;;;31.19;47.30
56632;BME280;42503;39.928;-75.152;2022-07-18T09:48:06;101331.31;;;31.20;47.03
56632;BME280;42503;39.928;-75.152;2022-07-18T09:50:23;101336.50;;;31.18;47.10
56632;BME280;42503;39.928;-75.152;2022-07-18T09:52:24;101332.34;;;31.16;47.15
56632;BME280;42503;39.928;-75.152;2022-07-18T09:54:46;101337.16;;;31.15;47.28
56632;BME280;42503;39.928;-75.152;2022-07-18T09:56:47;101338.66;;;31.21;47.24
56632;BME280;42503;39.928;-75.152;2022-07-18T09:58:53;101326.84;;;31.19;47.05
56632;BME280;42503;39.928;-75.152;2022-07-18T10:01:00;101333.31;;;31.20;47.29
56632;BME280;42503;39.928;-75.152;2022-07-18T10:03:03;101330.84;;;31.18;47.04
56632;BME280;42503;39.928;-75.152;2022-07-18T10:05:08;101334.50;;;31.19;47.07
56632;BME280;42503;39.928;-75.152;2022-07-18T10:07:10;101328.22;;;31.13;46.97
56632;BME280;42503;39.928;-75.152;2022-07-18T10:09:11;101338.50;;;31.18;47.17
56632;BME280;42503;39.928;-75.152;2022-07-18T10:11:18;101334.50;;;31.19;47.34
56632;BME280;42503;39.928;-75.152;2022-07-18T10:13:23;101334.84;;;31.17;47.40
56632;BME280;42503;39.928;-75.152;2022-07-18T10:15:27;101336.50;;;31.18;47.09
56632;BME280;42503;39.928;-75.152;2022-07-18T10:17:29;101333.66;;;31.18;47.33
56632;BME280;42503;39.928;-75.152;2022-07-18T10:19:34;101323.53;;;31.17;47.23
56632;BME280;42503;39.928;-75.152;2022-07-18T10:21:36;101324.38;;;31.18;47.16
56632;BME280;42503;39.928;-75.152;2022-07-18T10:23:39;101316.25;;;31.16;47.38
56632;BME280;42503;39.928;-75.152;2022-07-18T10:25:41;101315.72;;;31.14;47.36
56632;BME280;42503;39.928;-75.152;2022-07-18T10:28:06;101316.25;;;31.16;47.27
56632;BME280;42503;39.928;-75.152;2022-07-18T10:30:12;101325.19;;;31.18;47.25
56632;BME280;42503;39.928;-75.152;2022-07-18T10:32:31;101313.41;;;31.16;47.35